Vestborg — E5U2070 — position and weather

sailwx.info

Track history (hours):
 
Tides and Currents Weather Stations Pressure Air Temp Water Temp Dewpoint Dewpoint Depression Visibility Wind Speed Wind Dir Waves Ship Positions

Vestborg

Last reported at 2014-Dec-19 17:31 UTC. Time now 2014-Dec-19 22:41 UTC.
Position N 58°07' E 006°03'.

Length 66 m; draft 5.3 m.

Type: Cargo ship. MMSI: 518120000.

Date/timePositionNaut miles runAvg speedWind from/ knotsBaromVisibWave heightAir tempDewpointWater temp
2014-Dec-19 17:31N 58°07' E 006°03'7 7.3
2014-Dec-19 16:32N 58°12' E 005°53'7 7.1
2014-Dec-19 15:33N 58°18' E 005°48'8 7.6
2014-Dec-19 14:34N 58°20' E 005°34'8 6.3
2014-Dec-19 13:13N 58°28' E 005°27'4 6.2
2014-Dec-19 12:32N 58°32' E 005°23'15 5.0
2014-Dec-19 09:32N 58°47' E 005°23'5 5.4
2014-Dec-19 08:33N 58°51' E 005°29'6 6.3
2014-Dec-19 07:33N 58°57' E 005°33'6 5.8
2014-Dec-19 06:34N 59°02' E 005°37'7 7.1
2014-Dec-19 05:34N 59°00' E 005°50'8 8.3
2014-Dec-19 04:33N 58°55' E 006°02'2 2.0
2014-Dec-19 03:33N 58°54' E 006°05'0 0.0
2014-Dec-19 02:34N 58°54' E 006°05'0 0.0
2014-Dec-19 01:34N 58°54' E 006°06'0 0.0
2014-Dec-19 00:34N 58°54' E 006°05'6 5.9
2014-Dec-18 23:33N 58°58' E 005°57'9 9.1
2014-Dec-18 22:34N 59°06' E 005°49'1010.0
2014-Dec-18 21:34N 59°11' E 005°32'9 8.6
2014-Dec-18 20:32N 59°17' E 005°20'10 9.7
2014-Dec-18 19:33N 59°26' E 005°14'3 0.1
2014-Dec-17 15:34N 59°29' E 005°13'9 8.7
2014-Dec-17 14:33N 59°21' E 005°19'8 7.4
2014-Dec-17 13:31N 59°14' E 005°27'8 8.1
2014-Dec-17 12:33N 59°09' E 005°39'9 8.7
2014-Dec-17 11:34N 59°03' E 005°51'9 8.7
2014-Dec-17 10:34N 58°56' E 006°00'6 5.7
2014-Dec-17 09:30N 58°52' E 006°09'0 0.0
2014-Dec-17 08:29N 58°52' E 006°09'0 0.0
2014-Dec-17 07:34N 58°52' E 006°09'0 0.0
2014-Dec-17 06:32N 58°52' E 006°09'0 0.1
2014-Dec-17 05:33N 58°52' E 006°09'6 6.4
2014-Dec-17 04:33N 58°56' E 005°60'7 6.6
2014-Dec-17 03:34N 59°01' E 005°52'7 6.7
2014-Dec-17 02:33N 59°08' E 005°46'8 7.5
2014-Dec-17 01:33N 59°11' E 005°33'10 7.3
2014-Dec-17 00:09N 59°19' E 005°20'5 8.7
2014-Dec-16 23:34N 59°24' E 005°17'7 6.7
2014-Dec-16 22:33N 59°30' E 005°13'0 0.0
2014-Dec-15 19:21N 59°30' E 005°13'19 6.7
2014-Dec-15 16:27N 59°12' E 005°29'6 6.6
2014-Dec-15 15:33N 59°09' E 005°39'7 6.8
2014-Dec-15 14:33N 59°06' E 005°49'8 7.8
2014-Dec-15 13:33N 58°58' E 005°55'7 6.9
2014-Dec-15 12:33N 58°54' E 006°05'1 0.7
2014-Dec-15 11:33N 58°53' E 006°06'2 2.0
2014-Dec-15 10:30N 58°52' E 006°09'0 0.0
2014-Dec-15 09:32N 58°52' E 006°09'0 0.0
2014-Dec-15 08:33N 58°52' E 006°09'0 0.0
2014-Dec-15 07:33N 58°52' E 006°09'0 0.0
2014-Dec-15 06:33N 58°52' E 006°09'0 0.0
2014-Dec-15 05:33N 58°52' E 006°09'0 0.0
2014-Dec-15 04:32N 58°52' E 006°09'0 0.0
2014-Dec-15 03:32N 58°52' E 006°09'0 0.0
2014-Dec-15 02:25N 58°52' E 006°09'0 0.0
2014-Dec-15 01:25N 58°52' E 006°09'0 0.0
2014-Dec-15 00:33N 58°52' E 006°09'0 0.0
2014-Dec-14 23:29N 58°52' E 006°09'0 0.0
2014-Dec-14 22:28N 58°52' E 006°09'4 4.5
2014-Dec-14 21:33N 58°55' E 006°03'8 8.2
2014-Dec-14 20:33N 59°00' E 005°52'9 8.5
2014-Dec-14 19:33N 59°08' E 005°44'10 9.5
2014-Dec-14 18:33N 59°13' E 005°28'8 7.6
2014-Dec-14 17:33N 59°19' E 005°20'9 8.5
2014-Dec-14 16:33N 59°27' E 005°14'0 0.0
2014-Dec-12 15:33N 59°27' E 005°13'8 7.5
2014-Dec-12 14:32N 59°20' E 005°19'7 6.9
2014-Dec-12 13:32N 59°14' E 005°27'7 7.6
2014-Dec-12 12:33N 59°10' E 005°38'8 8.4
2014-Dec-12 11:33N 59°04' E 005°51'8 8.4
2014-Dec-12 10:33N 58°57' E 005°59'7 7.2
2014-Dec-12 09:32N 58°52' E 006°09'0 0.0
2014-Dec-12 07:32N 58°52' E 006°09'0 0.0
2014-Dec-12 06:19N 58°52' E 006°09'0 0.3
2014-Dec-12 05:33N 58°52' E 006°08'9 8.8
2014-Dec-12 04:33N 58°58' E 005°56'9 9.0
2014-Dec-12 03:33N 59°06' E 005°48'9 8.8
2014-Dec-12 02:33N 59°11' E 005°34'9 8.1
2014-Dec-12 01:26N 59°16' E 005°20'8 9.2
2014-Dec-12 00:33N 59°24' E 005°16'3 0.1
2014-Dec-10 19:33N 59°27' E 005°14'15 7.3
2014-Dec-10 17:33N 59°14' E 005°27'6 6.2
2014-Dec-10 16:32N 59°10' E 005°37'7 6.7
2014-Dec-10 15:33N 59°07' E 005°47'8 7.5
2014-Dec-10 14:33N 58°60' E 005°52'8 8.2
2014-Dec-10 13:33N 58°54' E 006°04'3 3.1
2014-Dec-10 12:28N 58°52' E 006°09'0 0.0
2014-Dec-10 11:31N 58°52' E 006°09'0 0.0
2014-Dec-10 10:33N 58°52' E 006°09'0 0.0
2014-Dec-10 09:33N 58°52' E 006°09'6 5.8
2014-Dec-10 08:34N 58°56' E 006°01'8 8.5
2014-Dec-10 07:33N 59°03' E 005°52'9 9.1
2014-Dec-10 06:34N 59°09' E 005°39'16 8.0
2014-Dec-10 04:33N 59°21' E 005°19'8 7.8
2014-Dec-10 03:33N 59°29' E 005°13'  
Track history (hours):
 
Tides and Currents Weather Stations Pressure Air Temp Water Temp Dewpoint Dewpoint Depression Visibility Wind Speed Wind Dir Waves Ship Positions

Vestborg

Last reported at 2014-Dec-19 17:31 UTC. Time now 2014-Dec-19 22:41 UTC.
Position N 58°07' E 006°03'.

Length 66 m; draft 5.3 m.

Type: Cargo ship. MMSI: 518120000.

Date/timePositionNaut miles runAvg speedWind from/ knotsBaromVisibWave heightAir tempDewpointWater temp
2014-Dec-19 17:31N 58°07' E 006°03'7 7.3
2014-Dec-19 16:32N 58°12' E 005°53'7 7.1
2014-Dec-19 15:33N 58°18' E 005°48'8 7.6
2014-Dec-19 14:34N 58°20' E 005°34'8 6.3
2014-Dec-19 13:13N 58°28' E 005°27'4 6.2
2014-Dec-19 12:32N 58°32' E 005°23'15 5.0
2014-Dec-19 09:32N 58°47' E 005°23'5 5.4
2014-Dec-19 08:33N 58°51' E 005°29'6 6.3
2014-Dec-19 07:33N 58°57' E 005°33'6 5.8
2014-Dec-19 06:34N 59°02' E 005°37'7 7.1
2014-Dec-19 05:34N 59°00' E 005°50'8 8.3
2014-Dec-19 04:33N 58°55' E 006°02'2 2.0
2014-Dec-19 03:33N 58°54' E 006°05'0 0.0
2014-Dec-19 02:34N 58°54' E 006°05'0 0.0
2014-Dec-19 01:34N 58°54' E 006°06'0 0.0
2014-Dec-19 00:34N 58°54' E 006°05'6 5.9
2014-Dec-18 23:33N 58°58' E 005°57'9 9.1
2014-Dec-18 22:34N 59°06' E 005°49'1010.0
2014-Dec-18 21:34N 59°11' E 005°32'9 8.6
2014-Dec-18 20:32N 59°17' E 005°20'10 9.7
2014-Dec-18 19:33N 59°26' E 005°14'3 0.1
2014-Dec-17 15:34N 59°29' E 005°13'9 8.7
2014-Dec-17 14:33N 59°21' E 005°19'8 7.4
2014-Dec-17 13:31N 59°14' E 005°27'8 8.1
2014-Dec-17 12:33N 59°09' E 005°39'9 8.7
2014-Dec-17 11:34N 59°03' E 005°51'9 8.7
2014-Dec-17 10:34N 58°56' E 006°00'6 5.7
2014-Dec-17 09:30N 58°52' E 006°09'0 0.0
2014-Dec-17 08:29N 58°52' E 006°09'0 0.0
2014-Dec-17 07:34N 58°52' E 006°09'0 0.0
2014-Dec-17 06:32N 58°52' E 006°09'0 0.1
2014-Dec-17 05:33N 58°52' E 006°09'6 6.4
2014-Dec-17 04:33N 58°56' E 005°60'7 6.6
2014-Dec-17 03:34N 59°01' E 005°52'7 6.7
2014-Dec-17 02:33N 59°08' E 005°46'8 7.5
2014-Dec-17 01:33N 59°11' E 005°33'10 7.3
2014-Dec-17 00:09N 59°19' E 005°20'5 8.7
2014-Dec-16 23:34N 59°24' E 005°17'7 6.7
2014-Dec-16 22:33N 59°30' E 005°13'0 0.0
2014-Dec-15 19:21N 59°30' E 005°13'19 6.7
2014-Dec-15 16:27N 59°12' E 005°29'6 6.6
2014-Dec-15 15:33N 59°09' E 005°39'7 6.8
2014-Dec-15 14:33N 59°06' E 005°49'8 7.8
2014-Dec-15 13:33N 58°58' E 005°55'7 6.9
2014-Dec-15 12:33N 58°54' E 006°05'1 0.7
2014-Dec-15 11:33N 58°53' E 006°06'2 2.0
2014-Dec-15 10:30N 58°52' E 006°09'0 0.0
2014-Dec-15 09:32N 58°52' E 006°09'0 0.0
2014-Dec-15 08:33N 58°52' E 006°09'0 0.0
2014-Dec-15 07:33N 58°52' E 006°09'0 0.0
2014-Dec-15 06:33N 58°52' E 006°09'0 0.0
2014-Dec-15 05:33N 58°52' E 006°09'0 0.0
2014-Dec-15 04:32N 58°52' E 006°09'0 0.0
2014-Dec-15 03:32N 58°52' E 006°09'0 0.0
2014-Dec-15 02:25N 58°52' E 006°09'0 0.0
2014-Dec-15 01:25N 58°52' E 006°09'0 0.0
2014-Dec-15 00:33N 58°52' E 006°09'0 0.0
2014-Dec-14 23:29N 58°52' E 006°09'0 0.0
2014-Dec-14 22:28N 58°52' E 006°09'4 4.5
2014-Dec-14 21:33N 58°55' E 006°03'8 8.2
2014-Dec-14 20:33N 59°00' E 005°52'9 8.5
2014-Dec-14 19:33N 59°08' E 005°44'10 9.5
2014-Dec-14 18:33N 59°13' E 005°28'8 7.6
2014-Dec-14 17:33N 59°19' E 005°20'9 8.5
2014-Dec-14 16:33N 59°27' E 005°14'0 0.0
2014-Dec-12 15:33N 59°27' E 005°13'8 7.5
2014-Dec-12 14:32N 59°20' E 005°19'7 6.9
2014-Dec-12 13:32N 59°14' E 005°27'7 7.6
2014-Dec-12 12:33N 59°10' E 005°38'8 8.4
2014-Dec-12 11:33N 59°04' E 005°51'8 8.4
2014-Dec-12 10:33N 58°57' E 005°59'7 7.2
2014-Dec-12 09:32N 58°52' E 006°09'0 0.0
2014-Dec-12 07:32N 58°52' E 006°09'0 0.0
2014-Dec-12 06:19N 58°52' E 006°09'0 0.3
2014-Dec-12 05:33N 58°52' E 006°08'9 8.8
2014-Dec-12 04:33N 58°58' E 005°56'9 9.0
2014-Dec-12 03:33N 59°06' E 005°48'9 8.8
2014-Dec-12 02:33N 59°11' E 005°34'9 8.1
2014-Dec-12 01:26N 59°16' E 005°20'8 9.2
2014-Dec-12 00:33N 59°24' E 005°16'3 0.1
2014-Dec-10 19:33N 59°27' E 005°14'15 7.3
2014-Dec-10 17:33N 59°14' E 005°27'6 6.2
2014-Dec-10 16:32N 59°10' E 005°37'7 6.7
2014-Dec-10 15:33N 59°07' E 005°47'8 7.5
2014-Dec-10 14:33N 58°60' E 005°52'8 8.2
2014-Dec-10 13:33N 58°54' E 006°04'3 3.1
2014-Dec-10 12:28N 58°52' E 006°09'0 0.0
2014-Dec-10 11:31N 58°52' E 006°09'0 0.0
2014-Dec-10 10:33N 58°52' E 006°09'0 0.0
2014-Dec-10 09:33N 58°52' E 006°09'6 5.8
2014-Dec-10 08:34N 58°56' E 006°01'8 8.5
2014-Dec-10 07:33N 59°03' E 005°52'9 9.1
2014-Dec-10 06:34N 59°09' E 005°39'16 8.0
2014-Dec-10 04:33N 59°21' E 005°19'8 7.8
2014-Dec-10 03:33N 59°29' E 005°13'  

Dump ship's entire track history